createdAt,value
2023-04-15T18:44:37.472Z,97546.97
2023-04-15T18:47:04.641Z,97547.16
2023-04-15T18:49:33.533Z,97550.03
2023-04-15T18:52:00.705Z,97542.06
2023-04-15T18:54:27.874Z,97553.91
2023-04-15T18:56:55.097Z,97553.22
2023-04-15T18:59:29.697Z,97549.88
2023-04-15T19:01:59.015Z,97558.16
2023-04-15T19:04:26.310Z,97558.84
2023-04-15T19:06:53.448Z,97553.25
2023-04-15T19:09:20.790Z,97551.88
2023-04-15T19:11:48.109Z,97551.91
2023-04-15T19:14:15.429Z,97553.56
2023-04-15T19:16:42.607Z,97554.75
2023-04-15T19:19:09.738Z,97553.22
2023-04-15T19:21:37.010Z,97558.31
2023-04-15T19:24:04.266Z,97556.28
2023-04-15T19:26:31.599Z,97559.00
2023-04-15T19:28:59.199Z,97555.44
2023-04-15T19:31:26.606Z,97560.53
2023-04-15T19:33:53.748Z,97553.22
2023-04-15T19:36:21.076Z,97551.56
2023-04-15T19:38:48.286Z,97547.34
2023-04-15T19:41:15.973Z,97550.34
2023-04-15T19:43:43.116Z,97551.91
2023-04-15T19:46:10.280Z,97559.19
2023-04-15T19:48:37.419Z,97551.88
2023-04-15T19:51:05.271Z,97555.63
2023-04-15T19:53:32.728Z,97546.66
2023-04-15T19:55:59.877Z,97555.97
2023-04-15T19:58:27.639Z,97554.59
2023-04-15T20:00:54.774Z,97556.97
2023-04-15T20:03:22.382Z,97566.41
2023-04-15T20:05:49.773Z,97560.16
2023-04-15T20:08:17.378Z,97565.41
2023-04-15T20:10:44.467Z,97562.16
2023-04-15T20:13:12.315Z,97563.00
2023-04-15T20:15:39.455Z,97557.28
2023-04-15T20:18:07.210Z,97552.50
2023-04-15T20:20:35.072Z,97556.84
2023-04-15T20:23:02.386Z,97554.22
2023-04-15T20:25:29.497Z,97563.09
2023-04-15T20:28:00.397Z,97556.25
2023-04-15T20:30:29.430Z,97558.81
2023-04-15T20:32:56.732Z,97556.97
2023-04-15T20:35:25.356Z,97560.56
2023-04-15T20:37:52.446Z,97557.34
2023-04-15T20:40:19.591Z,97554.94
2023-04-15T20:42:46.691Z,97558.31
2023-04-15T20:45:13.923Z,97552.38
2023-04-15T20:47:41.863Z,97558.78
2023-04-15T20:50:09.871Z,97554.03
2023-04-15T20:52:37.084Z,97562.22
2023-04-15T20:55:04.496Z,97561.63
2023-04-15T20:57:31.847Z,97554.50
2023-04-15T20:59:59.037Z,97562.69
2023-04-15T21:02:26.421Z,97554.41
2023-04-15T21:04:53.653Z,97554.19
2023-04-15T21:07:20.796Z,97559.56
2023-04-15T21:09:48.064Z,97569.34
2023-04-15T21:12:15.147Z,97561.09
2023-04-15T21:14:42.324Z,97557.50
2023-04-15T21:17:11.132Z,97557.75
2023-04-15T21:19:38.939Z,97574.50
2023-04-15T21:22:06.166Z,97553.56
2023-04-15T21:24:33.446Z,97568.03
2023-04-15T21:27:02.169Z,97551.66
2023-04-15T21:29:29.634Z,97548.91
2023-04-15T21:31:56.823Z,97553.75
2023-04-15T21:34:24.111Z,97563.34
2023-04-15T21:36:51.228Z,97569.34
2023-04-15T21:39:18.532Z,97566.44
2023-04-15T21:41:45.685Z,97563.59
2023-04-15T21:44:14.869Z,97563.06
2023-04-15T21:46:46.028Z,97566.97
2023-04-15T21:49:14.139Z,97570.97
2023-04-15T21:51:41.243Z,97567.59
2023-04-15T21:54:08.439Z,97572.28
2023-04-15T21:56:35.771Z,97565.59
2023-04-15T21:59:02.934Z,97575.47
2023-04-15T22:01:30.193Z,97556.94
2023-04-15T22:03:57.632Z,97585.94
2023-04-15T22:06:24.809Z,97575.88
2023-04-15T22:09:11.335Z,97571.81
2023-04-15T22:11:39.031Z,97574.38
2023-04-15T22:14:06.360Z,97575.69
2023-04-15T22:16:33.673Z,97581.16
2023-04-15T22:19:00.869Z,97573.13
2023-04-15T22:21:28.086Z,97564.09
2023-04-15T22:24:33.507Z,97571.38
2023-04-15T22:26:42.478Z,97582.13
2023-04-15T22:29:10.036Z,97572.75
2023-04-15T22:31:37.223Z,97568.19
2023-04-15T22:34:04.459Z,97567.94
2023-04-15T22:36:32.080Z,97569.28
2023-04-15T22:38:59.131Z,97572.44
2023-04-15T22:41:26.631Z,97571.09
2023-04-15T22:43:53.755Z,97569.66
2023-04-15T22:46:21.134Z,97568.97
2023-04-15T22:48:48.274Z,97564.72
2023-04-15T22:51:22.385Z,97562.28
2023-04-15T22:53:50.935Z,97575.53
2023-04-15T22:56:22.266Z,97567.38
2023-04-15T22:58:50.699Z,97569.28
2023-04-15T23:01:18.371Z,97570.84
2023-04-15T23:03:56.973Z,97578.22
2023-04-15T23:06:27.458Z,97575.31
2023-04-15T23:08:54.817Z,97580.69
2023-04-15T23:11:22.301Z,97569.59
2023-04-15T23:13:50.880Z,97566.97
2023-04-15T23:16:18.038Z,97568.75
2023-04-15T23:18:45.151Z,97562.06
2023-04-15T23:21:12.227Z,97555.13
2023-04-15T23:23:39.313Z,97571.66
2023-04-15T23:26:06.639Z,97568.16
2023-04-15T23:28:33.708Z,97565.44
2023-04-15T23:31:00.953Z,97569.41
2023-04-15T23:33:28.162Z,97563.44
2023-04-15T23:35:55.447Z,97557.25
2023-04-15T23:38:22.691Z,97555.19
2023-04-15T23:40:51.412Z,97557.13
2023-04-15T23:43:18.511Z,97563.31
2023-04-15T23:45:45.623Z,97557.25
2023-04-15T23:48:12.759Z,97552.28
2023-04-15T23:50:40.006Z,97555.28
2023-04-15T23:53:07.132Z,97565.63
2023-04-15T23:55:34.222Z,97562.81
2023-04-15T23:58:01.298Z,97557.97
